1859 Hurricane NOT_NAMED (1859253N21275)


IBTrACS version v04r00. Visit IBTrACS website for data access.
Please direct all questions to the IBTrACS Q and A forum

Storm track - Intensity - Wind Radii - Intensity Data - Source Data - All data

Summary Information

Storm ID 1859253N21275
Start Sep 9 12Z
Landfall Sep 15 21Z
Max Intensity 90 kt (Sep 13 12Z)
End Sep 22 12Z
ATCF IDs ,AL051859
Track status Best track data.

Storm track plot

Map of storm track

Intensity plots

Map of storm track

Radial wind information

No radial wind information for this storm


Position and Intensity Table

BASIN ISO_TIME_________ NATURE LAT LON WMO WIND USA WIND MLC WIND
degrees north degrees east kts kts kts
NA 1859-09-09 12:00:00 TS 20.70 -85.50 30
NA 15:00:00 TS 20.90 -85.55 30
NA 18:00:00 TS 21.10 -85.60 30
NA 21:00:00 TS 21.30 -85.66 30
NA 1859-09-10 00:00:00 TS 21.50 -85.70 30
NA 03:00:00 TS 21.70 -85.71 30
NA 06:00:00 TS 21.90 -85.70 30
NA 09:00:00 TS 22.11 -85.69 32
NA 12:00:00 TS 22.30 -85.70 35
NA 15:00:00 TS 22.46 -85.74 37
NA 18:00:00 TS 22.60 -85.80 40
NA 21:00:00 TS 22.75 -85.85 42
NA 1859-09-11 00:00:00 TS 22.90 -85.90 45
NA 03:00:00 TS 23.05 -85.96 50
NA 06:00:00 TS 23.20 -86.00 55
NA 09:00:00 TS 23.34 -85.99 57
NA 12:00:00 TS 23.50 -86.00 60
NA 15:00:00 TS 23.70 -86.08 65
NA 18:00:00 TS 23.90 -86.20 70
NA 21:00:00 TS 24.05 -86.30 72
NA 1859-09-12 00:00:00 TS 24.20 -86.40 75
NA 03:00:00 TS 24.40 -86.50 77
NA 06:00:00 TS 24.60 -86.60 80
NA 09:00:00 TS 24.75 -86.71 82
NA 12:00:00 TS 24.90 -86.80 85
NA 15:00:00 TS 25.09 -86.86 85
NA 18:00:00 TS 25.30 -86.90 85
NA 21:00:00 TS 25.50 -86.95 85
NA 1859-09-13 00:00:00 TS 25.70 -87.00 85
NA 03:00:00 TS 25.91 -87.05 85
NA 06:00:00 TS 26.10 -87.10 85
NA 09:00:00 TS 26.25 -87.14 87
NA 12:00:00 TS 26.40 -87.20 90
NA 15:00:00 TS 26.60 -87.30 90
NA 18:00:00 TS 26.80 -87.40 90
NA 21:00:00 TS 26.95 -87.45 90
NA 1859-09-14 00:00:00 TS 27.10 -87.50 90
NA 03:00:00 TS 27.30 -87.60 90
NA 06:00:00 TS 27.50 -87.70 90
NA 09:00:00 TS 27.63 -87.75 87
NA 12:00:00 TS 27.80 -87.80 85
NA 15:00:00 TS 28.12 -87.90 85
NA 18:00:00 TS 28.50 -88.00 85
NA 21:00:00 TS 28.85 -88.06 85
NA 1859-09-15 00:00:00 TS 28.80 -88.40 70 70 85
NA 03:00:00 TS 28.91 -88.58 70 82
NA 06:00:00 TS 29.06 -88.68 70 70 80
NA 09:00:00 TS 29.24 -88.74 70 77
NA 12:00:00 TS 29.50 -88.70 70 70 75
NA 15:00:00 TS 29.76 -88.57 70 72
NA 18:00:00 TS 30.03 -88.37 70 70 70
NA 21:00:00 TS 30.31 -88.12 70 67
NA 1859-09-16 00:00:00 TS 30.60 -87.83 70 70 65
NA 03:00:00 TS 30.91 -87.56 60 57
NA 06:00:00 TS 31.23 -87.27 50 50 50
NA 09:00:00 TS 31.54 -87.05 45 45
NA 12:00:00 TS 31.93 -86.63 40 40 40
NA 15:00:00 TS 32.49 -85.83 40 40
NA 18:00:00 TS 33.13 -84.77 40 40 40
NA 21:00:00 TS 33.74 -83.59 40 40
NA 1859-09-17 00:00:00 TS 34.37 -82.33 40 40 40
NA 03:00:00 TS 35.02 -81.10 40 40
NA 06:00:00 TS 35.70 -79.87 40 40 40
NA 09:00:00 TS 36.38 -78.64 45 45
NA 12:00:00 TS 37.07 -77.40 50 50 50
NA 15:00:00 TS 37.73 -76.13 55 55
NA 18:00:00 TS 38.37 -74.80 60 60 60
NA 21:00:00 TS 38.98 -73.39 65 62
NA 1859-09-18 00:00:00 TS 39.57 -71.83 70 70 65
NA 03:00:00 TS 40.13 -70.13 70 65
NA 06:00:00 TS 40.63 -68.23 70 70 65
NA 09:00:00 TS 41.05 -66.17 70 65
NA 12:00:00 TS 41.28 -64.52 70 70 65
NA 15:00:00 TS 41.46 -63.36 70 65
NA 18:00:00 TS 41.57 -63.33 70 70 65
NA 21:00:00 TS 41.51 -66.36 65
NA 1859-09-19 00:00:00 TS 41.90 -65.20 65
NA 03:00:00 TS 42.30 -64.00 65
NA 06:00:00 TS 42.70 -62.80 65
NA 09:00:00 TS 43.08 -61.71 65
NA 12:00:00 TS 43.50 -60.50 65
NA 15:00:00 TS 43.99 -58.96 62
NA 18:00:00 TS 44.50 -57.30 60
NA 21:00:00 TS 45.00 -55.74 60
NA 1859-09-20 00:00:00 TS 45.50 -54.20 60
NA 03:00:00 TS 46.00 -52.65 60
NA 06:00:00 TS 46.50 -51.10 60
NA 09:00:00 TS 47.04 -49.40 60
NA 12:00:00 TS 47.50 -48.00 60
NA 15:00:00 TS 47.78 -47.34 60
NA 18:00:00 ET 48.00 -47.00 60
NA 21:00:00 ET 48.29 -46.50 60
NA 1859-09-21 00:00:00 ET 48.50 -46.00 60
NA 03:00:00 ET 48.54 -45.50 60
NA 06:00:00 ET 48.50 -45.00 60
NA 09:00:00 ET 48.50 -44.50 60
NA 12:00:00 ET 48.50 -44.00 60
NA 15:00:00 ET 48.50 -43.50 60
NA 18:00:00 ET 48.50 -43.00 60
NA 21:00:00 ET 48.50 -42.50 60
NA 1859-09-22 00:00:00 ET 48.50 -42.00 60
NA 03:00:00 ET 48.50 -41.50 60
NA 06:00:00 ET 48.50 -41.00 60
NA 09:00:00 ET 48.50 -40.50 60
NA 12:00:00 ET 48.50 -40.00 60

Source Information

Agency Information
USA hurdat2-1851-2018-051019.txt:Line=788:UNNAMED
TOKYO
CMA
HKO
NEWDELHI
REUNION
BOM
NADI
WELLINGTON
DS824
TD9636
TD9635
NEUMANN
MLC

All available IBTrACS Data

SEASON BASIN SUBBASIN ISO_TIME_________ NATURE LAT LON WMO WIND WMO AGENCY DIST2LAND LANDFALL IFLAG USA AGENCY USA ATCF_ID USA LAT USA LON USA RECORD USA STATUS USA WIND USA SSHS MLC LAT MLC LON MLC CLASS MLC WIND STORM SPEED STORM DIR
Year degrees north degrees east kts km km degrees north degrees east kts 1 degrees north degrees east kts kts degrees
1859 NA CS 1859-09-09 12:00:00 TS 20.70 -85.50 132 123 _____________O -1 20.70 -85.50 TD 30 4 347
1859 NA CS 15:00:00 TS 20.90 -85.55 123 108 _____________P -1 20.90 -85.55 TD 30 4 347
1859 NA CS 18:00:00 TS 21.10 -85.60 108 91 _____________O -1 21.10 -85.60 TD 30 4 346
1859 NA CS 21:00:00 TS 21.30 -85.66 98 85 _____________P -1 21.30 -85.66 TD 30 4 347
1859 NA CS 1859-09-10 00:00:00 TS 21.50 -85.70 85 75 _____________O -1 21.50 -85.70 TD 30 4 355
1859 NA CS 03:00:00 TS 21.70 -85.71 75 72 _____________P -1 21.70 -85.71 TD 30 4 0
1859 NA GM 06:00:00 TS 21.90 -85.70 72 72 _____________O -1 21.90 -85.70 TD 30 4 0
1859 NA GM 09:00:00 TS 22.11 -85.69 75 75 _____________P -1 22.11 -85.69 TD 32 4 0
1859 NA GM 12:00:00 TS 22.30 -85.70 84 84 _____________O -1 22.30 -85.70 TS 35 4 354
1859 NA GM 15:00:00 TS 22.46 -85.74 98 98 _____________P -1 22.46 -85.74 TS 37 3 344
1859 NA GM 18:00:00 TS 22.60 -85.80 113 113 _____________O -1 22.60 -85.80 TS 40 3 341
1859 NA GM 21:00:00 TS 22.75 -85.85 136 128 _____________P -1 22.75 -85.85 TS 42 3 344
1859 NA GM 1859-09-11 00:00:00 TS 22.90 -85.90 145 145 _____________O -1 22.90 -85.90 TS 45 3 343
1859 NA GM 03:00:00 TS 23.05 -85.96 168 168 _____________P -1 23.05 -85.96 TS 50 3 344
1859 NA GM 06:00:00 TS 23.20 -86.00 177 177 _____________O -1 23.20 -86.00 TS 55 3 351
1859 NA GM 09:00:00 TS 23.34 -85.99 187 187 _____________P -1 23.34 -85.99 TS 57 3 0
1859 NA GM 12:00:00 TS 23.50 -86.00 206 206 _____________O -1 23.50 -86.00 TS 60 4 346
1859 NA GM 15:00:00 TS 23.70 -86.08 230 230 _____________P -1 23.70 -86.08 TS 65 4 336
1859 NA GM 18:00:00 TS 23.90 -86.20 255 255 _____________O -1 23.90 -86.20 HU 70 4 331
1859 NA GM 21:00:00 TS 24.05 -86.30 278 269 _____________P -1 24.05 -86.30 HU 72 4 329
1859 NA GM 1859-09-12 00:00:00 TS 24.20 -86.40 293 293 _____________O -1 24.20 -86.40 HU 75 4 333
1859 NA GM 03:00:00 TS 24.40 -86.50 316 316 _____________P -1 24.40 -86.50 HU 77 4 336
1859 NA GM 06:00:00 TS 24.60 -86.60 338 338 _____________O -1 24.60 -86.60 HU 80 4 332
1859 NA GM 09:00:00 TS 24.75 -86.71 361 361 _____________P -1 24.75 -86.71 HU 82 4 329
1859 NA GM 12:00:00 TS 24.90 -86.80 376 376 _____________O -1 24.90 -86.80 HU 85 4 338
1859 NA GM 15:00:00 TS 25.09 -86.86 398 398 _____________P -1 25.09 -86.86 HU 85 4 348
1859 NA GM 18:00:00 TS 25.30 -86.90 413 413 _____________O -1 25.30 -86.90 HU 85 4 349
1859 NA GM 21:00:00 TS 25.50 -86.95 436 422 _____________P -1 25.50 -86.95 HU 85 4 348
1859 NA GM 1859-09-13 00:00:00 TS 25.70 -87.00 422 403 _____________O -1 25.70 -87.00 HU 85 4 348
1859 NA GM 03:00:00 TS 25.91 -87.05 403 379 _____________P -1 25.91 -87.05 HU 85 4 348
1859 NA GM 06:00:00 TS 26.10 -87.10 379 369 _____________O -1 26.10 -87.10 HU 85 4 347
1859 NA GM 09:00:00 TS 26.25 -87.14 369 345 _____________P -1 26.25 -87.14 HU 87 3 344
1859 NA GM 12:00:00 TS 26.40 -87.20 345 321 _____________O -1 26.40 -87.20 HU 90 4 338
1859 NA GM 15:00:00 TS 26.60 -87.30 321 296 _____________P -1 26.60 -87.30 HU 90 4 336
1859 NA GM 18:00:00 TS 26.80 -87.40 296 287 _____________O -1 26.80 -87.40 HU 90 4 340
1859 NA GM 21:00:00 TS 26.95 -87.45 282 263 _____________P -1 26.95 -87.45 HU 90 3 344
1859 NA GM 1859-09-14 00:00:00 TS 27.10 -87.50 263 240 _____________O -1 27.10 -87.50 HU 90 4 340
1859 NA GM 03:00:00 TS 27.30 -87.60 240 216 _____________P -1 27.30 -87.60 HU 90 4 336
1859 NA GM 06:00:00 TS 27.50 -87.70 216 207 _____________O -1 27.50 -87.70 HU 90 4 338
1859 NA GM 09:00:00 TS 27.63 -87.75 201 184 _____________P -1 27.63 -87.75 HU 87 3 344
1859 NA GM 12:00:00 TS 27.80 -87.80 184 154 _____________O -1 27.80 -87.80 HU 85 5 345
1859 NA GM 15:00:00 TS 28.12 -87.90 154 118 _____________P -1 28.12 -87.90 HU 85 7 346
1859 NA GM 18:00:00 TS 28.50 -88.00 118 102 _____________O -1 28.50 -88.00 HU 85 7 350
1859 NA GM 21:00:00 TS 28.85 -88.06 93 67 _____________P -1 28.85 -88.06 HU 85 5 311
1859 NA GM 1859-09-15 00:00:00 TS 28.80 -88.40 70 hurdat_atl 67 44 O____________O hurdat_atl AL051859 28.00 -89.00 HU 70 1 29.20 -88.10 HU 85 5 277
1859 NA GM 03:00:00 TS 28.91 -88.58 44 29 P____________P AL051859 28.25 -89.01 HU 70 1 29.56 -88.15 HU 82 4 317
1859 NA GM 06:00:00 TS 29.06 -88.68 70 hurdat_atl 29 29 O____________O hurdat_atl AL051859 28.50 -89.00 HU 70 1 29.90 -88.20 HU 80 4 336
1859 NA GM 09:00:00 TS 29.24 -88.74 31 31 P____________P AL051859 28.74 -88.97 HU 70 1 30.22 -88.29 HU 77 4 357
1859 NA GM 12:00:00 TS 29.50 -88.70 70 hurdat_atl 51 51 O____________O hurdat_atl AL051859 29.00 -88.90 HU 70 1 30.50 -88.30 HU 75 6 16
1859 NA GM 15:00:00 TS 29.76 -88.57 56 34 P____________P AL051859 29.28 -88.78 HU 70 1 30.72 -88.15 HU 72 6 28
1859 NA GM 18:00:00 TS 30.03 -88.37 70 hurdat_atl 34 0 O____________O hurdat_atl AL051859 29.60 -88.60 HU 70 1 30.90 -87.90 HU 70 7 36
1859 NA GM 21:00:00 TS 30.31 -88.12 0 0 P____________P AL051859 29.93 -88.37 HU 70 1 31.06 -87.61 HU 67 7 39
1859 NA NA 1859-09-16 00:00:00 TS 30.60 -87.83 70 hurdat_atl 0 0 O____________O hurdat_atl AL051859 30.30 -88.10 L HU 70 1 31.20 -87.30 HU 65 8 39
1859 NA NA 03:00:00 TS 30.91 -87.56 0 0 P____________P AL051859 30.68 -87.81 HU 60 0 31.35 -87.04 HU 57 8 37
1859 NA NA 06:00:00 TS 31.23 -87.27 50 hurdat_atl 0 0 O____________O hurdat_atl AL051859 31.10 -87.50 TS 50 0 31.50 -86.80 TS 50 8 35
1859 NA NA 09:00:00 TS 31.54 -87.05 0 0 P____________P AL051859 31.53 -87.25 TS 45 0 31.57 -86.63 TS 45 9 38
1859 NA NA 12:00:00 TS 31.93 -86.63 40 hurdat_atl 0 0 O____________O hurdat_atl AL051859 32.00 -86.80 TS 40 0 31.80 -86.30 TS 40 14 47
1859 NA NA 15:00:00 TS 32.49 -85.83 0 0 P____________P AL051859 32.53 -85.92 TS 40 0 32.42 -85.66 TS 40 20 53
1859 NA NA 18:00:00 TS 33.13 -84.77 40 hurdat_atl 0 0 O____________O hurdat_atl AL051859 33.10 -84.80 TS 40 0 33.20 -84.70 TS 40 23 56
1859 NA NA 21:00:00 TS 33.74 -83.59 0 0 P____________P AL051859 33.68 -83.69 TS 40 0 33.85 -83.41 TS 40 24 59
1859 NA NA 1859-09-17 00:00:00 TS 34.37 -82.33 40 hurdat_atl 0 0 O____________O hurdat_atl AL051859 34.30 -82.50 TS 40 0 34.50 -82.00 TS 40 24 58
1859 NA NA 03:00:00 TS 35.02 -81.10 0 0 P____________P AL051859 34.93 -81.26 TS 40 0 35.20 -80.78 TS 40 24 57
1859 NA NA 06:00:00 TS 35.70 -79.87 40 hurdat_atl 0 0 O____________O hurdat_atl AL051859 35.60 -80.00 TS 40 0 35.90 -79.60 TS 40 24 56
1859 NA NA 09:00:00 TS 36.38 -78.64 0 0 P____________P AL051859 36.28 -78.78 TS 45 0 36.59 -78.36 TS 45 24 55
1859 NA NA 12:00:00 TS 37.07 -77.40 50 hurdat_atl 0 0 O____________O hurdat_atl AL051859 37.00 -77.50 TS 50 0 37.20 -77.20 TS 50 24 56
1859 NA NA 15:00:00 TS 37.73 -76.13 20 0 P____________P AL051859 37.74 -76.07 TS 55 0 37.70 -76.26 TS 55 24 58
1859 NA NA 18:00:00 TS 38.37 -74.80 60 hurdat_atl 26 26 O____________O hurdat_atl AL051859 38.50 -74.50 TS 60 0 38.10 -75.40 TS 60 25 60
1859 NA NA 21:00:00 TS 38.98 -73.39 95 95 P____________P AL051859 39.27 -72.86 TS 65 1 38.41 -74.45 TS 62 26 63
1859 NA NA 1859-09-18 00:00:00 TS 39.57 -71.83 70 hurdat_atl 149 148 O____________O hurdat_atl AL051859 40.00 -71.00 HU 70 1 38.70 -73.50 HU 65 28 65
1859 NA NA 03:00:00 TS 40.13 -70.13 163 156 P____________P AL051859 40.65 -68.90 HU 70 1 39.09 -72.60 HU 65 29 69
1859 NA NA 06:00:00 TS 40.63 -68.23 70 hurdat_atl 193 193 O____________O hurdat_atl AL051859 41.20 -66.50 HU 70 1 39.50 -71.70 HU 65 31 73
1859 NA NA 09:00:00 TS 41.05 -66.17 281 249 P____________P AL051859 41.65 -63.86 HU 70 1 39.84 -70.79 HU 65 29 77
1859 NA NA 12:00:00 TS 41.28 -64.52 70 hurdat_atl 253 253 O____________O hurdat_atl AL051859 42.00 -61.00 HU 70 1 40.20 -69.80 HU 65 21 79
1859 NA NA 15:00:00 TS 41.46 -63.36 271 267 P____________P AL051859 42.29 -58.03 HU 70 1 40.64 -68.68 HU 65 9 72
1859 NA NA 18:00:00 TS 41.57 -63.33 70 hurdat_atl 267 222 O____________O hurdat_atl AL051859 42.50 -55.00 HU 70 1 41.10 -67.50 HU 65 22 271
1859 NA NA 21:00:00 TS 41.51 -66.36 229 177 _____________P AL051859 HU -1 41.51 -66.36 HU 65 14 283
1859 NA NA 1859-09-19 00:00:00 TS 41.90 -65.20 178 161 _____________O -1 41.90 -65.20 HU 65 19 66
1859 NA NA 03:00:00 TS 42.30 -64.00 170 170 _____________P -1 42.30 -64.00 HU 65 19 66
1859 NA NA 06:00:00 TS 42.70 -62.80 199 194 _____________O -1 42.70 -62.80 HU 65 19 65
1859 NA NA 09:00:00 TS 43.08 -61.71 198 193 _____________P -1 43.08 -61.71 HU 65 19 65
1859 NA NA 12:00:00 TS 43.50 -60.50 194 188 _____________O -1 43.50 -60.50 HU 65 22 66
1859 NA NA 15:00:00 TS 43.99 -58.96 209 209 _____________P -1 43.99 -58.96 HU 62 25 67
1859 NA NA 18:00:00 TS 44.50 -57.30 262 200 _____________O -1 44.50 -57.30 TS 60 25 66
1859 NA NA 21:00:00 TS 45.00 -55.74 199 133 _____________P -1 45.00 -55.74 TS 60 24 65
1859 NA NA 1859-09-20 00:00:00 TS 45.50 -54.20 130 76 _____________O -1 45.50 -54.20 TS 60 24 65
1859 NA NA 03:00:00 TS 46.00 -52.65 80 77 _____________P -1 46.00 -52.65 TS 60 24 65
1859 NA NA 06:00:00 TS 46.50 -51.10 148 148 _____________O -1 46.50 -51.10 TS 60 25 65
1859 NA NA 09:00:00 TS 47.04 -49.40 246 246 _____________P -1 47.04 -49.40 TS 60 23 65
1859 NA NA 12:00:00 TS 47.50 -48.00 344 344 _____________O -1 47.50 -48.00 TS 60 16 62
1859 NA NA 15:00:00 TS 47.78 -47.34 396 396 _____________P -1 47.78 -47.34 TS 60 8 53
1859 NA NA 18:00:00 ET 48.00 -47.00 420 420 _____________O -1 48.00 -47.00 EX 60 8 48
1859 NA NA 21:00:00 ET 48.29 -46.50 461 461 _____________P -1 48.29 -46.50 EX 60 8 53
1859 NA NA 1859-09-21 00:00:00 ET 48.50 -46.00 501 501 _____________O -1 48.50 -46.00 EX 60 7 69
1859 NA NA 03:00:00 ET 48.54 -45.50 537 537 _____________P -1 48.54 -45.50 EX 60 7 90
1859 NA NA 06:00:00 ET 48.50 -45.00 573 573 _____________O -1 48.50 -45.00 EX 60 7 93
1859 NA NA 09:00:00 ET 48.50 -44.50 609 609 _____________P -1 48.50 -44.50 EX 60 7 90
1859 NA NA 12:00:00 ET 48.50 -44.00 646 646 _____________O -1 48.50 -44.00 EX 60 7 90
1859 NA NA 15:00:00 ET 48.50 -43.50 682 682 _____________P -1 48.50 -43.50 EX 60 7 90
1859 NA NA 18:00:00 ET 48.50 -43.00 719 719 _____________O -1 48.50 -43.00 EX 60 7 90
1859 NA NA 21:00:00 ET 48.50 -42.50 755 755 _____________P -1 48.50 -42.50 EX 60 7 90
1859 NA NA 1859-09-22 00:00:00 ET 48.50 -42.00 792 792 _____________O -1 48.50 -42.00 EX 60 7 90
1859 NA NA 03:00:00 ET 48.50 -41.50 828 828 _____________P -1 48.50 -41.50 EX 60 7 90
1859 NA NA 06:00:00 ET 48.50 -41.00 865 865 _____________O -1 48.50 -41.00 EX 60 7 90
1859 NA NA 09:00:00 ET 48.50 -40.50 902 902 _____________P -1 48.50 -40.50 EX 60 7 90
1859 NA NA 12:00:00 ET 48.50 -40.00 938 _____________O -1 48.50 -40.00 EX 60 7 90